createdAt,value
2022-10-29T00:01:33.060Z,6.35
2022-10-29T00:06:37.370Z,6.88
2022-10-29T00:11:42.705Z,6.35
2022-10-29T00:16:46.530Z,5.50
2022-10-29T00:21:51.173Z,7.38
2022-10-29T00:26:56.361Z,4.22
2022-10-29T00:32:00.284Z,5.67
2022-10-29T00:37:04.371Z,4.78
2022-10-29T00:42:15.850Z,7.07
2022-10-29T00:47:24.723Z,5.38
2022-10-29T00:52:32.146Z,6.25
2022-10-29T00:57:40.615Z,7.03
2022-10-29T01:02:46.033Z,5.28
2022-10-29T01:07:49.954Z,6.97
2022-10-29T01:18:34.555Z,6.63
2022-10-29T01:24:07.638Z,4.85
2022-10-29T01:29:29.925Z,5.05
2022-10-29T01:34:44.406Z,8.02
2022-10-29T01:39:58.030Z,5.47
2022-10-29T01:45:12.343Z,7.03
2022-10-29T01:50:21.380Z,6.03
2022-10-29T01:55:35.330Z,8.20
2022-10-29T02:00:51.417Z,7.22
2022-10-29T02:11:10.666Z,4.55
2022-10-29T02:16:15.466Z,5.30
2022-10-29T02:21:21.880Z,5.50
2022-10-29T02:26:25.786Z,5.90
2022-10-29T02:31:29.848Z,4.68
2022-10-29T02:36:34.995Z,7.60
2022-10-29T02:41:39.674Z,6.57
2022-10-29T02:46:43.637Z,5.30
2022-10-29T02:51:49.094Z,5.35
2022-10-29T02:56:53.177Z,4.22
2022-10-29T03:01:58.254Z,7.50
2022-10-29T03:07:04.364Z,6.65
2022-10-29T03:12:09.088Z,6.95
2022-10-29T03:17:13.206Z,8.57
2022-10-29T03:22:18.661Z,5.68
2022-10-29T03:27:22.549Z,5.53
2022-10-29T03:32:26.328Z,5.57
2022-10-29T03:37:31.661Z,5.50
2022-10-29T03:42:35.752Z,6.82
2022-10-29T03:47:39.777Z,5.53
2022-10-29T03:52:45.064Z,3.92
2022-10-29T03:57:49.082Z,6.53
2022-10-29T04:02:53.403Z,4.45
2022-10-29T04:07:58.921Z,4.28
2022-10-29T04:13:02.995Z,7.20
2022-10-29T04:18:07.135Z,6.93
2022-10-29T04:26:25.868Z,3.28
2022-10-29T04:28:42.911Z,5.60
2022-10-29T04:33:47.560Z,2.88
2022-10-29T04:38:52.820Z,5.82
2022-10-29T04:43:56.672Z,4.45
2022-10-29T04:49:00.873Z,4.20
2022-10-29T04:54:06.413Z,2.55
2022-10-29T04:59:10.360Z,6.00
2022-10-29T05:04:14.496Z,3.70
2022-10-29T05:09:19.658Z,2.95
2022-10-29T05:14:23.496Z,2.63
2022-10-29T05:19:27.294Z,4.80
2022-10-29T05:24:32.406Z,4.47
2022-10-29T05:29:36.307Z,2.80
2022-10-29T05:34:44.354Z,3.78
2022-10-29T05:39:49.734Z,7.88
2022-10-29T05:44:53.476Z,4.60
2022-10-29T05:49:57.417Z,4.60
2022-10-29T05:55:03.840Z,3.43
2022-10-29T06:00:09.364Z,5.32
2022-10-29T06:05:16.010Z,4.40
2022-10-29T06:10:21.313Z,3.63
2022-10-29T06:15:25.154Z,7.20
2022-10-29T06:20:29.165Z,1.75
2022-10-29T06:25:34.780Z,2.67
2022-10-29T06:30:38.998Z,2.22
2022-10-29T06:35:43.239Z,3.53
2022-10-29T06:40:54.102Z,4.05
2022-10-29T06:45:57.913Z,4.78
2022-10-29T06:51:02.285Z,2.65
2022-10-29T06:56:08.064Z,6.55
2022-10-29T07:01:11.968Z,6.18
2022-10-29T07:06:15.738Z,3.45
2022-10-29T07:11:21.021Z,7.82
2022-10-29T07:16:24.806Z,3.85
2022-10-29T07:21:28.596Z,4.15
2022-10-29T07:26:34.418Z,4.18
2022-10-29T07:31:38.744Z,9.40
2022-10-29T07:36:42.578Z,5.20
2022-10-29T07:41:47.687Z,4.50
2022-10-29T07:46:51.507Z,4.63
2022-10-29T07:51:55.585Z,2.75
2022-10-29T07:57:00.713Z,2.55
2022-10-29T08:02:04.690Z,7.32
2022-10-29T08:07:08.501Z,4.63
2022-10-29T08:12:13.613Z,8.80
2022-10-29T08:17:17.513Z,6.10
2022-10-29T08:22:21.420Z,7.57
2022-10-29T08:27:26.612Z,6.85
2022-10-29T08:32:30.349Z,8.23
2022-10-29T08:37:34.072Z,11.60
2022-10-29T08:42:47.490Z,5.15
2022-10-29T08:48:21.104Z,4.15
2022-10-29T08:53:32.917Z,4.45
2022-10-29T08:58:46.616Z,4.68
2022-10-29T09:03:50.937Z,4.10
2022-10-29T09:09:17.929Z,4.22
2022-10-29T09:14:40.662Z,4.10
2022-10-29T09:20:18.209Z,5.88
2022-10-29T09:25:29.457Z,7.72
2022-10-29T09:30:43.423Z,4.97
2022-10-29T09:35:50.023Z,5.72
2022-10-29T09:40:57.590Z,6.45
2022-10-29T09:46:14.178Z,4.35
2022-10-29T09:51:27.333Z,7.25
2022-10-29T09:56:31.787Z,6.90
2022-10-29T10:01:37.122Z,6.68
2022-10-29T10:07:03.501Z,5.18
2022-10-29T10:17:14.027Z,3.88
2022-10-29T10:22:20.595Z,6.38
2022-10-29T10:27:31.653Z,6.95
2022-10-29T10:32:36.987Z,5.57
2022-10-29T10:37:40.746Z,10.38
2022-10-29T10:42:47.592Z,8.23
2022-10-29T10:47:59.160Z,7.20
2022-10-29T10:53:06.346Z,7.85
2022-10-29T10:58:15.170Z,10.95
2022-10-29T11:03:25.240Z,8.20
2022-10-29T11:08:35.095Z,5.20
2022-10-29T11:13:41.712Z,7.90
2022-10-29T11:18:53.300Z,8.88
2022-10-29T11:24:04.029Z,5.05
2022-10-29T11:29:16.536Z,4.78
2022-10-29T11:34:26.276Z,6.22
2022-10-29T11:39:34.553Z,3.95
2022-10-29T11:44:40.405Z,7.80
2022-10-29T11:50:01.691Z,10.88
2022-10-29T11:55:17.183Z,10.80
2022-10-29T12:00:23.907Z,8.27
2022-10-29T12:05:37.283Z,8.65
2022-10-29T12:10:51.314Z,6.45
2022-10-29T12:16:07.248Z,7.65
2022-10-29T12:21:22.858Z,6.90
2022-10-29T12:31:43.558Z,9.55
2022-10-29T12:36:57.695Z,10.18
2022-10-29T12:42:04.560Z,10.13
2022-10-29T12:47:15.711Z,8.73
2022-10-29T12:52:30.115Z,9.15
2022-10-29T12:57:35.759Z,8.07
2022-10-29T13:02:45.938Z,6.78
2022-10-29T13:08:26.763Z,9.30
2022-10-29T13:13:47.989Z,8.35
2022-10-29T13:19:05.472Z,8.93
2022-10-29T13:24:17.985Z,14.93
2022-10-29T13:29:48.446Z,10.68
2022-10-29T13:34:57.691Z,7.38
2022-10-29T13:40:47.272Z,9.95
2022-10-29T13:46:03.231Z,9.13
2022-10-29T13:56:19.183Z,10.30
2022-10-29T14:01:26.279Z,10.05
2022-10-29T14:06:34.576Z,11.32
2022-10-29T14:11:40.827Z,15.25
2022-10-29T14:16:46.005Z,17.10
2022-10-29T14:21:49.729Z,15.07
2022-10-29T14:27:08.062Z,17.40
2022-10-29T14:32:18.570Z,11.88
2022-10-29T14:37:30.024Z,18.88
2022-10-29T14:42:36.252Z,15.57
2022-10-29T14:47:41.581Z,15.90
2022-10-29T14:52:53.389Z,14.25
2022-10-29T14:58:05.285Z,16.15
2022-10-29T15:03:21.275Z,15.88
2022-10-29T15:08:29.368Z,15.55
2022-10-29T15:13:36.073Z,16.30
2022-10-29T15:18:41.391Z,12.73
2022-10-29T15:23:46.635Z,17.17
2022-10-29T15:28:53.096Z,16.83
2022-10-29T15:34:03.883Z,16.50
2022-10-29T15:39:21.004Z,17.42
2022-10-29T15:44:41.103Z,16.38
2022-10-29T15:49:46.492Z,15.93
2022-10-29T15:54:50.720Z,18.95
2022-10-29T15:59:57.460Z,13.52
2022-10-29T16:05:02.844Z,17.77
2022-10-29T16:10:07.779Z,18.45
2022-10-29T16:15:16.485Z,14.60
2022-10-29T16:20:21.914Z,16.38
2022-10-29T16:25:27.899Z,18.20
2022-10-29T16:35:37.170Z,13.43
2022-10-29T16:40:42.767Z,14.20
2022-10-29T16:45:46.623Z,12.55
2022-10-29T16:50:51.707Z,20.95
2022-10-29T16:55:55.488Z,21.47
2022-10-29T17:01:04.148Z,16.05
2022-10-29T17:06:11.875Z,17.20
2022-10-29T17:11:16.158Z,21.42
2022-10-29T17:16:19.911Z,20.30
2022-10-29T17:21:25.240Z,13.45
2022-10-29T17:26:29.124Z,19.58
2022-10-29T17:31:32.952Z,13.30
2022-10-29T17:36:41.056Z,15.13
2022-10-29T17:41:44.828Z,14.13
2022-10-29T17:46:48.557Z,14.90
2022-10-29T17:51:53.868Z,14.98
2022-10-29T17:56:57.808Z,14.32
2022-10-29T18:02:01.541Z,20.73
2022-10-29T18:07:07.067Z,13.48
2022-10-29T18:12:11.171Z,10.43
2022-10-29T18:17:14.880Z,20.20
2022-10-29T18:22:20.077Z,13.57
2022-10-29T18:27:24.212Z,14.98
2022-10-29T18:32:27.978Z,18.67
2022-10-29T18:37:33.508Z,17.20
2022-10-29T18:42:37.306Z,12.77
2022-10-29T18:47:41.212Z,12.68
2022-10-29T18:52:46.332Z,14.55
2022-10-29T18:57:50.053Z,14.23
2022-10-29T19:02:53.988Z,9.27
2022-10-29T19:08:02.964Z,9.82
2022-10-29T19:13:08.117Z,9.02
2022-10-29T19:18:11.942Z,10.95
2022-10-29T19:23:17.156Z,13.05
2022-10-29T19:28:21.045Z,11.45
2022-10-29T19:33:24.989Z,9.20
2022-10-29T19:38:30.354Z,10.18
2022-10-29T19:43:34.269Z,17.73
2022-10-29T19:48:38.148Z,12.60
2022-10-29T19:53:43.462Z,10.88
2022-10-29T19:58:50.034Z,11.25
2022-10-29T20:03:53.943Z,11.25
2022-10-29T20:08:59.090Z,7.60
2022-10-29T20:14:04.019Z,12.30
2022-10-29T20:19:08.868Z,6.35
2022-10-29T20:24:13.989Z,7.45
2022-10-29T20:29:17.867Z,8.32
2022-10-29T20:34:21.603Z,9.68
2022-10-29T20:39:30.864Z,8.70
2022-10-29T20:44:37.176Z,11.90
2022-10-29T20:49:40.978Z,8.55
2022-10-29T20:54:46.216Z,9.18
2022-10-29T20:59:49.950Z,14.20
2022-10-29T21:04:53.815Z,9.75
2022-10-29T21:09:58.871Z,8.68
2022-10-29T21:15:02.571Z,12.87
2022-10-29T21:20:07.149Z,9.85
2022-10-29T21:25:12.588Z,8.60
2022-10-29T21:30:16.657Z,5.63
2022-10-29T21:35:20.380Z,10.23
2022-10-29T21:40:25.439Z,10.32
2022-10-29T21:45:29.241Z,8.98
2022-10-29T21:50:32.953Z,10.48
2022-10-29T21:55:38.377Z,11.07
2022-10-29T22:00:42.208Z,10.25
2022-10-29T22:05:46.567Z,8.07
2022-10-29T22:10:51.863Z,8.27
2022-10-29T22:15:56.114Z,8.75
2022-10-29T22:21:05.112Z,10.60
2022-10-29T22:26:10.309Z,12.75
2022-10-29T22:31:15.296Z,8.00
2022-10-29T22:36:20.909Z,9.60
2022-10-29T22:41:26.898Z,6.50
2022-10-29T22:46:31.469Z,8.48
2022-10-29T22:56:29.874Z,7.65
2022-10-29T23:01:44.296Z,10.00
2022-10-29T23:11:55.089Z,5.13
2022-10-29T23:17:00.612Z,8.83
2022-10-29T23:22:04.688Z,7.35
2022-10-29T23:27:09.892Z,7.35
2022-10-29T23:32:13.665Z,7.70
2022-10-29T23:37:17.349Z,11.25
2022-10-29T23:42:22.625Z,8.35
2022-10-29T23:47:26.315Z,6.80
2022-10-29T23:52:29.949Z,8.40
2022-10-29T23:57:35.140Z,6.10
